Time;durP1;ratioP1;P1;durP2;ratioP2;P2;SDS_P1;SDS_P2;PMS_P1;PMS_P2;Temp;Humidity;BMP_temperature;BMP_pressure;BME280_temperature;BME280_humidity;BME280_pressure;Samples;Min_cycle;Max_cycle;Signal;HPM_P1;HPM_P2
2021/08/13 00:01:14;;;;;;;3.40;2.30;;;20.10;99.90;;;;;;5035921;28;20800;-83
2021/08/13 00:03:41;;;;;;;3.93;1.80;;;20.10;99.90;;;;;;5036227;28;20442;-83
2021/08/13 00:06:08;;;;;;;3.37;1.43;;;20.10;99.90;;;;;;5035873;28;20434;-79
2021/08/13 00:08:34;;;;;;;1.87;1.53;;;20.10;99.90;;;;;;5035791;28;20485;-79
2021/08/13 00:11:03;;;;;;;1.97;1.57;;;20.10;99.90;;;;;;5035669;28;20931;-79
2021/08/13 00:13:29;;;;;;;3.20;2.03;;;20.10;99.90;;;;;;5035665;28;20938;-79
2021/08/13 00:15:56;;;;;;;4.30;1.47;;;20.10;99.90;;;;;;5035969;28;20446;-83
2021/08/13 00:18:23;;;;;;;1.63;1.10;;;20.00;99.90;;;;;;5035680;28;20794;-83
2021/08/13 00:20:50;;;;;;;2.60;1.50;;;20.00;99.90;;;;;;5035785;28;20450;-83
2021/08/13 00:23:16;;;;;;;3.13;1.70;;;20.00;99.90;;;;;;5035544;28;20837;-84
2021/08/13 00:25:43;;;;;;;2.60;1.60;;;20.00;99.90;;;;;;5035469;28;20808;-85
2021/08/13 00:28:11;;;;;;;1.50;1.40;;;20.00;99.90;;;;;;5035766;28;20486;-85
2021/08/13 00:30:38;;;;;;;1.80;1.13;;;20.00;99.90;;;;;;5035791;28;20450;-85
2021/08/13 00:33:05;;;;;;;2.07;1.40;;;20.00;99.90;;;;;;5035740;28;20474;-85
2021/08/13 00:35:32;;;;;;;2.67;1.20;;;20.00;99.90;;;;;;5035450;28;20450;-85
2021/08/13 00:37:58;;;;;;;2.40;1.50;;;20.00;99.90;;;;;;5035511;28;20456;-85
2021/08/13 00:40:25;;;;;;;2.47;1.43;;;20.00;99.90;;;;;;5035301;28;20423;-85
2021/08/13 00:42:52;;;;;;;4.20;1.50;;;20.00;99.90;;;;;;5035444;28;20830;-79
2021/08/13 00:45:20;;;;;;;6.30;2.20;;;20.00;99.90;;;;;;5035058;28;20977;-79
2021/08/13 00:47:47;;;;;;;9.00;1.50;;;20.00;99.90;;;;;;5034586;28;20849;-79
2021/08/13 00:50:14;;;;;;;1.60;0.93;;;20.00;99.90;;;;;;5035327;28;20500;-79
2021/08/13 00:52:42;;;;;;;2.60;1.30;;;20.00;99.90;;;;;;5034895;28;20466;-79
2021/08/13 00:55:09;;;;;;;2.67;2.00;;;19.90;99.90;;;;;;5035216;28;20461;-79
2021/08/13 00:57:36;;;;;;;2.47;1.40;;;19.90;99.90;;;;;;5034860;28;20445;-79
2021/08/13 01:00:04;;;;;;;2.30;1.40;;;19.90;99.90;;;;;;5035102;28;20449;-79
2021/08/13 01:02:32;;;;;;;2.20;1.33;;;19.90;99.90;;;;;;5034634;28;20842;-79
2021/08/13 01:04:59;;;;;;;1.53;0.97;;;19.90;99.90;;;;;;5035488;28;20945;-79
2021/08/13 01:07:26;;;;;;;4.53;1.40;;;19.90;99.90;;;;;;5034590;28;20478;-79
2021/08/13 01:09:53;;;;;;;2.97;1.40;;;19.90;99.90;;;;;;5034919;28;20446;-79
2021/08/13 01:12:29;;;;;;;2.30;1.60;;;19.90;99.90;;;;;;5034794;28;20474;-79
2021/08/13 01:15:03;;;;;;;2.93;1.53;;;19.90;99.90;;;;;;5034854;28;20442;-79
2021/08/13 01:17:35;;;;;;;2.73;2.03;;;19.90;99.90;;;;;;5034757;28;20434;-79
2021/08/13 01:20:09;;;;;;;2.30;1.23;;;20.00;99.90;;;;;;5034539;28;20423;-79
2021/08/13 01:22:45;;;;;;;2.13;1.60;;;20.00;99.90;;;;;;5034705;28;20470;-79
2021/08/13 01:25:16;;;;;;;3.63;2.27;;;20.00;99.90;;;;;;5034343;28;20928;-79
2021/08/13 01:27:47;;;;;;;2.70;2.17;;;19.90;99.90;;;;;;5034309;28;20466;-79
2021/08/13 01:30:16;;;;;;;2.73;1.90;;;19.90;99.90;;;;;;5034798;28;20453;-79
2021/08/13 01:32:50;;;;;;;2.80;1.70;;;19.90;99.90;;;;;;5034414;28;20478;-79
2021/08/13 01:35:21;;;;;;;2.30;1.53;;;19.90;99.90;;;;;;5034527;28;20446;-80
2021/08/13 01:37:52;;;;;;;6.20;2.80;;;19.90;99.90;;;;;;5034274;28;20450;-79
2021/08/13 01:40:20;;;;;;;2.20;2.00;;;19.80;99.90;;;;;;5033956;28;20648;-79
2021/08/13 01:42:48;;;;;;;2.70;1.80;;;19.80;99.90;;;;;;5034228;28;20470;-79
2021/08/13 01:45:19;;;;;;;2.70;1.60;;;19.80;99.90;;;;;;5034232;28;20458;-79
2021/08/13 01:47:48;;;;;;;1.60;1.50;;;19.80;99.90;;;;;;5034180;28;20490;-79
2021/08/13 01:50:15;;;;;;;3.93;2.20;;;19.70;99.90;;;;;;5034167;28;20490;-79
2021/08/13 01:52:43;;;;;;;2.40;2.20;;;19.70;99.90;;;;;;5034036;28;20473;-79
2021/08/13 01:55:12;;;;;;;2.30;2.07;;;19.70;99.90;;;;;;5033744;28;20461;-79
2021/08/13 01:57:39;;;;;;;2.17;1.77;;;19.70;99.90;;;;;;5033741;28;20446;-79
2021/08/13 02:00:07;;;;;;;4.60;2.10;;;19.60;99.90;;;;;;5032996;28;20457;-79
2021/08/13 02:02:35;;;;;;;2.30;1.73;;;19.70;99.90;;;;;;5033823;28;20475;-79
2021/08/13 02:05:05;;;;;;;4.13;1.50;;;19.70;99.90;;;;;;5033942;28;20812;-79
2021/08/13 02:07:35;;;;;;;1.60;1.00;;;19.70;99.90;;;;;;5033795;28;20858;-79
2021/08/13 02:10:03;;;;;;;2.40;1.37;;;19.70;99.90;;;;;;5033887;28;20484;-79
2021/08/13 02:12:30;;;;;;;3.10;2.00;;;19.70;99.90;;;;;;5033687;28;20469;-79
2021/08/13 02:14:57;;;;;;;2.47;1.13;;;19.80;99.90;;;;;;5033719;28;20453;-79
2021/08/13 02:17:28;;;;;;;1.73;1.53;;;19.80;99.90;;;;;;5033687;28;20461;-79
2021/08/13 02:19:58;;;;;;;2.20;1.73;;;19.70;99.90;;;;;;5033398;28;20922;-79
2021/08/13 02:22:26;;;;;;;5.00;1.80;;;19.80;99.90;;;;;;5033629;28;20541;-79
2021/08/13 02:24:53;;;;;;;6.90;2.17;;;19.80;99.90;;;;;;5033581;28;20454;-79
2021/08/13 02:27:20;;;;;;;2.90;1.90;;;19.80;99.90;;;;;;5033491;28;20443;-79
2021/08/13 02:29:46;;;;;;;2.17;1.40;;;19.70;99.90;;;;;;5033512;28;20462;-79
2021/08/13 02:32:14;;;;;;;3.43;1.97;;;19.70;99.90;;;;;;5033393;28;20536;-79
2021/08/13 02:34:41;;;;;;;2.40;1.77;;;19.70;99.90;;;;;;5033478;28;20450;-79
2021/08/13 02:37:14;;;;;;;3.63;2.40;;;19.70;99.90;;;;;;5033457;28;20435;-79
2021/08/13 02:39:48;;;;;;;4.03;1.70;;;19.70;99.90;;;;;;5033037;28;20487;-79
2021/08/13 02:42:21;;;;;;;1.73;1.53;;;19.80;99.90;;;;;;5033058;28;20473;-79
2021/08/13 02:44:52;;;;;;;6.77;2.40;;;19.80;99.90;;;;;;5033371;28;20457;-80
2021/08/13 02:47:20;;;;;;;4.63;1.70;;;19.90;99.90;;;;;;5033387;28;20434;-79
2021/08/13 02:49:51;;;;;;;2.10;1.87;;;19.90;99.90;;;;;;5033235;28;20493;-79
2021/08/13 02:52:24;;;;;;;4.07;2.17;;;20.00;99.90;;;;;;5033231;28;20470;-79
2021/08/13 02:54:54;;;;;;;5.87;2.50;;;20.00;99.90;;;;;;5032987;28;20773;-79
2021/08/13 02:57:23;;;;;;;4.70;3.00;;;20.00;99.90;;;;;;5033222;28;20457;-79
2021/08/13 02:59:52;;;;;;;1.60;1.50;;;20.10;99.90;;;;;;5032913;28;20454;-79
2021/08/13 03:02:21;;;;;;;3.20;2.00;;;20.10;99.90;;;;;;5032791;28;20473;-79
2021/08/13 03:04:50;;;;;;;5.97;2.90;;;20.00;99.90;;;;;;5033371;28;20538;-79
2021/08/13 03:07:19;;;;;;;2.10;1.83;;;20.00;99.90;;;;;;5033144;28;20520;-79
2021/08/13 03:09:46;;;;;;;1.77;1.67;;;20.00;99.90;;;;;;5033072;28;20482;-79
2021/08/13 03:12:15;;;;;;;3.70;2.13;;;20.00;99.90;;;;;;5037096;28;20470;-79
2021/08/13 03:14:42;;;;;;;4.27;2.80;;;20.00;99.90;;;;;;5037085;28;20446;-79
2021/08/13 03:17:10;;;;;;;3.93;1.97;;;20.00;99.90;;;;;;5037077;28;20450;-79
2021/08/13 03:19:37;;;;;;;3.97;2.33;;;20.00;99.90;;;;;;5037031;28;20449;-80
2021/08/13 03:22:04;;;;;;;2.10;1.60;;;20.00;99.90;;;;;;5036857;28;20473;-79
2021/08/13 03:24:32;;;;;;;3.10;2.10;;;20.10;99.90;;;;;;5036899;28;20451;-79
2021/08/13 03:26:59;;;;;;;6.10;1.80;;;20.00;99.90;;;;;;5036863;28;20525;-79
2021/08/13 03:29:27;;;;;;;2.43;1.83;;;20.00;99.90;;;;;;5036509;28;20997;-84
2021/08/13 03:31:58;;;;;;;5.83;1.97;;;20.00;99.90;;;;;;5036806;28;20524;-84
2021/08/13 03:34:25;;;;;;;2.80;2.07;;;20.00;99.90;;;;;;5036817;28;20430;-79
2021/08/13 03:36:52;;;;;;;4.17;2.30;;;20.00;99.90;;;;;;5036678;28;20446;-79
2021/08/13 03:39:19;;;;;;;4.70;2.13;;;19.90;99.90;;;;;;5036303;28;20485;-79
2021/08/13 03:41:45;;;;;;;4.40;2.50;;;19.90;99.90;;;;;;5036225;28;20466;-79
2021/08/13 03:44:12;;;;;;;3.67;2.23;;;19.90;99.90;;;;;;5036321;28;20441;-79
2021/08/13 03:46:40;;;;;;;4.20;2.20;;;19.90;99.90;;;;;;5036490;28;20446;-79
2021/08/13 03:49:08;;;;;;;3.10;1.47;;;19.90;99.90;;;;;;5036389;28;20478;-79
2021/08/13 03:51:35;;;;;;;2.10;1.60;;;19.90;99.90;;;;;;5036347;28;20466;-79
2021/08/13 03:54:02;;;;;;;2.13;1.53;;;19.90;99.90;;;;;;5036015;28;20820;-78
2021/08/13 03:56:28;;;;;;;2.00;1.87;;;19.90;99.90;;;;;;5036317;28;20450;-78
2021/08/13 03:58:56;;;;;;;6.70;2.90;;;20.00;99.90;;;;;;5035986;28;20438;-78
2021/08/13 04:01:22;;;;;;;2.40;1.80;;;20.00;99.90;;;;;;5035842;28;20977;-78
2021/08/13 04:03:50;;;;;;;2.13;1.93;;;20.00;99.90;;;;;;5035864;28;20946;-78
2021/08/13 04:06:17;;;;;;;2.60;2.40;;;20.00;99.90;;;;;;5036169;28;20448;-78
2021/08/13 04:08:44;;;;;;;2.50;2.10;;;20.00;99.90;;;;;;5035772;28;20477;-78
2021/08/13 04:11:11;;;;;;;4.13;1.70;;;20.10;99.90;;;;;;5035974;28;20473;-78
2021/08/13 04:13:37;;;;;;;6.83;2.40;;;20.10;99.90;;;;;;5035978;28;20446;-78
2021/08/13 04:16:05;;;;;;;4.30;2.00;;;20.10;99.90;;;;;;5035578;28;20824;-78
2021/08/13 04:18:32;;;;;;;2.50;2.13;;;20.10;99.90;;;;;;5035882;28;20442;-78
2021/08/13 04:21:00;;;;;;;1.43;1.30;;;20.00;99.90;;;;;;5035854;28;20473;-78
2021/08/13 04:23:26;;;;;;;3.13;1.93;;;20.00;99.90;;;;;;5034697;28;20810;-78
2021/08/13 04:25:53;;;;;;;4.67;2.33;;;20.00;99.90;;;;;;5035772;28;20450;-78
2021/08/13 04:28:20;;;;;;;1.50;1.40;;;20.00;99.90;;;;;;5035707;28;20482;-78
2021/08/13 04:30:47;;;;;;;2.60;1.90;;;19.90;99.90;;;;;;5035694;28;20453;-78
2021/08/13 04:33:14;;;;;;;2.60;1.50;;;19.90;99.90;;;;;;5035349;28;20994;-78
2021/08/13 04:35:41;;;;;;;2.10;1.90;;;19.90;99.90;;;;;;5035599;28;20463;-78
2021/08/13 04:38:09;;;;;;;2.53;2.30;;;19.90;99.90;;;;;;5035387;28;20934;-78
2021/08/13 04:40:36;;;;;;;2.00;1.60;;;19.90;99.90;;;;;;5035277;28;20884;-78
2021/08/13 04:43:03;;;;;;;2.83;1.73;;;19.90;99.90;;;;;;5035390;28;20474;-78
2021/08/13 04:45:30;;;;;;;1.97;1.73;;;20.00;99.90;;;;;;5035413;28;20458;-78
2021/08/13 04:47:57;;;;;;;2.20;1.97;;;20.00;99.90;;;;;;5035118;28;20460;-78
2021/08/13 04:50:24;;;;;;;2.53;2.33;;;20.00;99.90;;;;;;5034989;28;20485;-78
2021/08/13 04:52:52;;;;;;;5.27;1.53;;;20.10;99.90;;;;;;5035061;28;20470;-78
2021/08/13 04:55:20;;;;;;;4.47;2.00;;;20.10;99.90;;;;;;5035219;28;20450;-78
2021/08/13 04:57:47;;;;;;;5.13;2.27;;;20.20;99.90;;;;;;5035183;28;20442;-78
2021/08/13 05:00:15;;;;;;;2.90;2.10;;;20.10;99.90;;;;;;5035160;28;20451;-78
2021/08/13 05:02:42;;;;;;;1.93;1.60;;;20.10;99.90;;;;;;5034723;28;21007;-78
2021/08/13 05:05:09;;;;;;;2.03;1.83;;;20.00;99.90;;;;;;5034797;28;20505;-78
2021/08/13 05:07:36;;;;;;;3.00;1.93;;;20.10;99.90;;;;;;5034901;28;20446;-78
2021/08/13 05:10:08;;;;;;;2.27;1.70;;;20.10;99.90;;;;;;5034660;28;20965;-78
2021/08/13 05:12:37;;;;;;;2.40;1.40;;;20.20;99.90;;;;;;5034881;28;20874;-78
2021/08/13 05:15:04;;;;;;;5.80;1.83;;;20.20;99.90;;;;;;5034498;28;20968;-78
2021/08/13 05:17:31;;;;;;;1.77;1.50;;;20.30;99.90;;;;;;5034835;28;20446;-78
2021/08/13 05:19:57;;;;;;;1.87;1.67;;;20.30;99.90;;;;;;5034741;28;20450;-78
2021/08/13 05:22:24;;;;;;;1.53;1.37;;;20.30;99.90;;;;;;5034322;28;20990;-78
2021/08/13 05:24:51;;;;;;;1.60;1.50;;;20.30;99.90;;;;;;5034364;28;20830;-78
2021/08/13 05:27:18;;;;;;;2.97;1.33;;;20.40;99.90;;;;;;5034376;28;20456;-78
2021/08/13 05:29:46;;;;;;;3.47;1.73;;;20.40;99.90;;;;;;5034535;28;20482;-78
2021/08/13 05:32:12;;;;;;;3.20;1.43;;;20.50;99.90;;;;;;5034410;28;20477;-83
2021/08/13 05:34:39;;;;;;;2.87;1.77;;;20.50;99.90;;;;;;5033494;28;20446;-83
2021/08/13 05:37:06;;;;;;;5.30;1.80;;;20.60;99.90;;;;;;5034175;28;21024;-83
2021/08/13 05:39:33;;;;;;;3.67;1.73;;;20.60;99.90;;;;;;5034002;28;20489;-83
2021/08/13 05:42:00;;;;;;;2.27;1.47;;;20.60;99.90;;;;;;5034336;28;20466;-83
2021/08/13 05:44:27;;;;;;;2.03;1.40;;;20.70;99.90;;;;;;5034424;28;20446;-83
2021/08/13 05:46:55;;;;;;;1.50;1.33;;;20.70;99.90;;;;;;5034353;28;20454;-83
2021/08/13 05:49:21;;;;;;;1.17;1.07;;;20.70;99.90;;;;;;5034159;28;20488;-83
2021/08/13 05:51:48;;;;;;;2.30;1.77;;;20.80;99.90;;;;;;5034364;28;20517;-83
2021/08/13 05:54:15;;;;;;;2.10;1.30;;;20.80;99.90;;;;;;5033993;28;20446;-83
2021/08/13 05:56:42;;;;;;;2.03;1.70;;;20.80;99.90;;;;;;5033740;28;20984;-83
2021/08/13 05:59:08;;;;;;;2.80;1.67;;;20.80;99.90;;;;;;5034029;28;20457;-83
2021/08/13 06:01:35;;;;;;;2.43;1.30;;;20.90;99.90;;;;;;5033965;28;20477;-82
2021/08/13 06:04:03;;;;;;;1.80;1.30;;;21.00;99.90;;;;;;5033554;28;20810;-82
2021/08/13 06:06:30;;;;;;;2.43;1.30;;;21.10;99.90;;;;;;5033617;28;20980;-83
2021/08/13 06:08:57;;;;;;;5.23;1.17;;;21.20;99.90;;;;;;5033532;28;20483;-83
2021/08/13 06:11:23;;;;;;;3.23;1.40;;;21.30;99.90;;;;;;5033770;28;20470;-83
2021/08/13 06:13:50;;;;;;;3.57;2.30;;;21.40;99.90;;;;;;5033784;28;20452;-82
2021/08/13 06:16:20;;;;;;;1.87;1.43;;;21.50;99.90;;;;;;5033721;28;20449;-82
2021/08/13 06:18:47;;;;;;;2.93;1.60;;;21.60;99.90;;;;;;5033883;28;20537;-82
2021/08/13 06:21:15;;;;;;;2.80;2.20;;;21.70;99.90;;;;;;5034438;28;20470;-82
2021/08/13 06:23:42;;;;;;;1.80;1.03;;;21.80;99.90;;;;;;5033635;28;20446;-83
2021/08/13 06:26:10;;;;;;;3.67;1.60;;;21.90;99.90;;;;;;5033754;28;20207;-82
2021/08/13 06:28:37;;;;;;;3.90;1.60;;;22.00;99.90;;;;;;5034067;28;20446;-82
2021/08/13 06:31:04;;;;;;;1.30;1.20;;;22.10;99.90;;;;;;5033790;28;20434;-81
2021/08/13 06:33:31;;;;;;;2.47;1.50;;;22.20;99.90;;;;;;5033685;28;20440;-82
2021/08/13 06:35:58;;;;;;;2.00;1.67;;;22.40;99.90;;;;;;5033726;28;20214;-82
2021/08/13 06:38:26;;;;;;;2.83;2.00;;;22.40;99.90;;;;;;5033446;28;20462;-82
2021/08/13 06:40:53;;;;;;;3.67;2.23;;;22.60;99.90;;;;;;5033891;28;20188;-82
2021/08/13 06:43:20;;;;;;;2.13;1.57;;;22.60;99.90;;;;;;5033720;28;20446;-82
2021/08/13 06:45:46;;;;;;;3.57;1.87;;;22.70;99.90;;;;;;5033126;28;20203;-82
2021/08/13 06:48:13;;;;;;;1.67;1.57;;;22.80;99.90;;;;;;5033461;28;20191;-82
2021/08/13 06:50:40;;;;;;;1.23;1.13;;;22.80;99.90;;;;;;5033426;28;21005;-83
2021/08/13 06:53:07;;;;;;;1.20;1.20;;;23.00;99.90;;;;;;5033718;28;20239;-82
2021/08/13 06:55:35;;;;;;;5.83;2.30;;;23.10;99.90;;;;;;5033677;28;20198;-83
2021/08/13 06:58:03;;;;;;;1.80;1.70;;;23.30;99.90;;;;;;5033647;28;20299;-82
2021/08/13 07:00:29;;;;;;;2.45;1.70;;;23.40;99.90;;;;;;5033742;28;20190;-82
2021/08/13 07:02:56;;;;;;;1.80;1.63;;;23.60;99.90;;;;;;5034326;28;20227;-82
2021/08/13 07:05:24;;;;;;;2.60;1.42;;;23.60;99.90;;;;;;5033586;28;20196;-82
2021/08/13 07:07:51;;;;;;;1.70;1.50;;;23.70;99.90;;;;;;5033699;28;20195;-80
2021/08/13 07:10:17;;;;;;;1.67;1.58;;;23.80;99.90;;;;;;5033549;28;20207;-80
2021/08/13 07:12:46;;;;;;;2.80;1.52;;;23.90;99.90;;;;;;5032965;28;20227;-80
2021/08/13 07:15:13;;;;;;;1.40;1.30;;;23.90;99.90;;;;;;5033251;28;20258;-81
2021/08/13 07:17:40;;;;;;;1.67;1.58;;;24.10;99.90;;;;;;5033153;28;20198;-82
2021/08/13 07:20:08;;;;;;;2.28;1.38;;;24.20;99.90;;;;;;5033310;28;20643;-80
2021/08/13 07:22:36;;;;;;;2.00;1.58;;;24.40;99.90;;;;;;5033502;28;20229;-80
2021/08/13 07:25:03;;;;;;;2.70;1.52;;;24.50;99.90;;;;;;5033609;28;20222;-84
2021/08/13 07:27:30;;;;;;;1.65;1.42;;;24.60;99.90;;;;;;5033708;28;20203;-86
2021/08/13 07:29:58;;;;;;;2.65;2.13;;;24.70;99.90;;;;;;5033687;28;20223;-83
2021/08/13 07:32:25;;;;;;;1.20;1.10;;;24.70;99.90;;;;;;5033571;28;20246;-84
2021/08/13 07:34:52;;;;;;;2.58;1.70;;;24.70;99.90;;;;;;5033157;28;20207;-85
2021/08/13 07:37:18;;;;;;;1.50;1.00;;;24.80;99.90;;;;;;5033359;28;20211;-86
2021/08/13 07:39:45;;;;;;;2.47;1.30;;;24.90;99.90;;;;;;5032867;28;20231;-84
2021/08/13 07:42:12;;;;;;;1.83;1.25;;;25.00;99.90;;;;;;5033409;28;20227;-86
2021/08/13 07:44:39;;;;;;;1.83;1.63;;;25.10;99.90;;;;;;5033554;28;20195;-86
2021/08/13 07:47:07;;;;;;;1.73;0.93;;;25.20;99.90;;;;;;5033406;28;20208;-86
2021/08/13 07:49:34;;;;;;;1.13;1.02;;;25.20;99.90;;;;;;5032714;28;20224;-86
2021/08/13 07:52:01;;;;;;;1.42;1.30;;;25.40;99.90;;;;;;5033010;28;20231;-86
2021/08/13 07:54:29;;;;;;;1.95;1.00;;;25.50;99.90;;;;;;5033151;28;20230;-85
2021/08/13 07:56:56;;;;;;;1.95;1.27;;;25.50;99.90;;;;;;5033480;28;20296;-86
2021/08/13 07:59:22;;;;;;;1.08;0.80;;;25.60;99.90;;;;;;5036848;28;20203;-87
2021/08/13 08:01:49;;;;;;;1.95;1.38;;;25.80;99.90;;;;;;5036517;28;20231;-87
2021/08/13 08:04:17;;;;;;;1.70;1.42;;;25.80;99.90;;;;;;5036681;28;20204;-86
2021/08/13 08:06:44;;;;;;;2.38;1.27;;;26.00;99.90;;;;;;5036397;28;20211;-86
2021/08/13 08:09:11;;;;;;;3.47;1.38;;;26.00;99.90;;;;;;5036595;28;20218;-86
2021/08/13 08:11:38;;;;;;;1.00;1.00;;;26.10;99.90;;;;;;5036213;28;20249;-86
2021/08/13 08:14:05;;;;;;;2.90;1.48;;;26.20;99.90;;;;;;5036496;28;20207;-84
2021/08/13 08:16:32;;;;;;;1.10;1.00;;;26.30;99.90;;;;;;5036218;28;20254;-84
2021/08/13 08:18:58;;;;;;;3.70;1.55;;;26.50;99.90;;;;;;5036270;28;20674;-83
2021/08/13 08:21:26;;;;;;;4.43;1.55;;;26.50;99.90;;;;;;5035933;28;20226;-82
2021/08/13 08:23:53;;;;;;;1.15;1.10;;;26.70;99.90;;;;;;5035772;28;20239;-82
2021/08/13 08:26:20;;;;;;;3.80;1.50;;;26.70;99.90;;;;;;5035856;28;20211;-82
2021/08/13 08:28:47;;;;;;;2.65;1.58;;;26.70;99.90;;;;;;5035788;28;20215;-83
2021/08/13 08:31:13;;;;;;;3.75;3.40;;;26.70;99.90;;;;;;5035335;28;20228;-83
2021/08/13 08:33:40;;;;;;;1.60;1.50;;;26.70;99.90;;;;;;5035425;28;20207;-82
2021/08/13 08:36:07;;;;;;;1.80;1.50;;;26.80;99.90;;;;;;5035337;28;20317;-82
2021/08/13 08:38:35;;;;;;;1.73;1.00;;;26.80;99.90;;;;;;5035330;28;20235;-81
2021/08/13 08:41:03;;;;;;;1.50;1.17;;;26.90;99.90;;;;;;5035489;28;20207;-81
2021/08/13 08:43:30;;;;;;;2.55;1.50;;;27.00;99.90;;;;;;5035563;28;20188;-82
2021/08/13 08:45:58;;;;;;;2.20;1.40;;;27.00;99.90;;;;;;5035137;28;20685;-81
2021/08/13 08:48:28;;;;;;;2.45;2.20;;;26.90;99.90;;;;;;5035207;28;20183;-82
2021/08/13 08:50:56;;;;;;;3.28;1.83;;;27.00;99.90;;;;;;5034837;28;20231;-82
2021/08/13 08:53:24;;;;;;;1.38;1.27;;;27.10;99.90;;;;;;5035262;28;20207;-82
2021/08/13 08:55:53;;;;;;;1.67;1.58;;;27.10;99.90;;;;;;5034887;28;20194;-82
2021/08/13 08:58:20;;;;;;;2.65;1.38;;;27.10;99.90;;;;;;5034840;28;20697;-80
2021/08/13 09:00:47;;;;;;;1.70;1.58;;;27.10;99.90;;;;;;5035221;28;20207;-79
2021/08/13 09:03:16;;;;;;;1.02;1.00;;;27.20;99.90;;;;;;5035066;28;20227;-80
2021/08/13 09:05:44;;;;;;;2.63;1.50;;;27.30;99.90;;;;;;5035801;28;20199;-79
2021/08/13 09:08:11;;;;;;;1.33;1.10;;;27.40;99.90;;;;;;5034493;28;20697;-80
2021/08/13 09:10:38;;;;;;;1.55;1.45;;;27.60;99.90;;;;;;5034632;28;20687;-80
2021/08/13 09:13:08;;;;;;;1.80;1.50;;;27.90;99.90;;;;;;5034742;28;20231;-80
2021/08/13 09:15:36;;;;;;;1.42;1.33;;;28.00;99.90;;;;;;5034677;28;20184;-82
2021/08/13 09:18:17;;;;;;;1.80;1.70;;;28.10;99.90;;;;;;5034557;28;20196;-79
2021/08/13 09:20:47;;;;;;;2.08;1.30;;;28.20;99.90;;;;;;5034533;28;20212;-79
2021/08/13 09:23:32;;;;;;;1.83;1.52;;;28.20;99.90;;;;;;5034328;28;20237;-79
2021/08/13 09:26:01;;;;;;;2.65;1.20;;;28.40;99.90;;;;;;5034716;28;20206;-79
2021/08/13 09:28:49;;;;;;;1.80;1.70;;;28.50;99.90;;;;;;5035068;28;20230;-79
2021/08/13 09:31:19;;;;;;;3.17;1.30;;;28.70;99.90;;;;;;5034414;28;20242;-79
2021/08/13 09:33:50;;;;;;;2.05;1.55;;;28.70;99.90;;;;;;5034260;28;20250;-79
2021/08/13 09:36:18;;;;;;;2.60;1.55;;;28.70;99.90;;;;;;5034185;28;20733;-79
2021/08/13 09:38:46;;;;;;;1.42;1.33;;;28.70;99.90;;;;;;5034157;28;20228;-79
2021/08/13 09:41:17;;;;;;;1.80;1.45;;;28.80;99.90;;;;;;5034328;28;20225;-79
2021/08/13 09:43:56;;;;;;;1.23;1.13;;;28.90;99.90;;;;;;5034627;28;20213;-79
2021/08/13 09:46:23;;;;;;;4.35;1.45;;;29.00;99.90;;;;;;5034327;28;20205;-79
2021/08/13 09:48:51;;;;;;;2.58;1.45;;;29.20;99.90;;;;;;5034289;28;20202;-79
2021/08/13 09:51:31;;;;;;;1.30;1.20;;;29.20;99.90;;;;;;5034022;28;20247;-78
2021/08/13 09:53:59;;;;;;;2.55;1.02;;;29.30;99.90;;;;;;5033880;28;20697;-79
2021/08/13 09:56:27;;;;;;;1.88;1.67;;;29.50;99.90;;;;;;5034358;28;20216;-79
2021/08/13 09:59:13;;;;;;;1.50;1.35;;;29.50;99.90;;;;;;5034095;28;20206;-79
2021/08/13 10:01:42;;;;;;;3.00;1.40;;;29.60;99.90;;;;;;5033959;28;20236;-79
2021/08/13 10:04:09;;;;;;;1.48;1.35;;;29.60;99.90;;;;;;5034053;28;20196;-79
2021/08/13 10:06:37;;;;;;;1.10;0.95;;;29.60;99.90;;;;;;5033973;28;20207;-79
2021/08/13 10:09:05;;;;;;;2.08;1.02;;;29.60;99.90;;;;;;5033682;28;20202;-79
2021/08/13 10:11:35;;;;;;;2.30;1.67;;;29.70;99.90;;;;;;5033705;28;20243;-79
2021/08/13 10:14:04;;;;;;;2.35;2.03;;;29.80;99.90;;;;;;5033859;28;20256;-79
2021/08/13 10:16:31;;;;;;;1.60;1.38;;;29.80;99.90;;;;;;5033566;28;20642;-79
2021/08/13 10:18:59;;;;;;;1.90;1.40;;;29.80;99.90;;;;;;5033775;28;20558;-79
2021/08/13 10:21:27;;;;;;;1.35;1.08;;;29.80;99.90;;;;;;5033355;28;20311;-79
2021/08/13 10:23:55;;;;;;;3.35;1.60;;;30.10;99.90;;;;;;5033414;28;20279;-79
2021/08/13 10:26:23;;;;;;;1.88;1.77;;;30.10;99.90;;;;;;5033438;28;20199;-79
2021/08/13 10:28:51;;;;;;;2.75;1.30;;;30.30;99.90;;;;;;5033622;28;20192;-79
2021/08/13 10:31:21;;;;;;;3.53;1.65;;;30.50;99.90;;;;;;5033414;28;20233;-79
2021/08/13 10:33:49;;;;;;;1.85;1.63;;;30.60;99.90;;;;;;5033533;28;20196;-79
2021/08/13 10:36:18;;;;;;;4.03;2.08;;;30.60;99.90;;;;;;5033506;28;20199;-80
2021/08/13 10:38:50;;;;;;;1.88;1.00;;;30.70;99.90;;;;;;5033429;28;20229;-78
2021/08/13 10:41:22;;;;;;;3.03;1.60;;;30.90;99.90;;;;;;5033453;28;20228;-79
2021/08/13 10:43:52;;;;;;;1.90;1.70;;;31.00;99.90;;;;;;5033171;28;20204;-78
2021/08/13 10:46:21;;;;;;;26.73;13.20;;;31.10;99.90;;;;;;5033332;28;20191;-79
2021/08/13 10:48:51;;;;;;;4.40;2.70;;;31.30;99.90;;;;;;5033142;28;20556;-80
2021/08/13 10:51:27;;;;;;;1.13;1.10;;;31.30;99.90;;;;;;5032910;28;20618;-79
2021/08/13 10:54:05;;;;;;;3.38;2.00;;;31.10;99.90;;;;;;5033060;28;20706;-78
2021/08/13 10:56:40;;;;;;;2.08;1.35;;;30.80;99.90;;;;;;5033425;28;20207;-78
2021/08/13 10:59:07;;;;;;;1.10;1.00;;;30.60;99.90;;;;;;5032941;28;20565;-78
2021/08/13 11:01:35;;;;;;;1.50;1.40;;;31.00;99.90;;;;;;5033190;28;20240;-79
2021/08/13 11:04:12;;;;;;;1.45;1.35;;;30.90;99.90;;;;;;5032957;28;20648;-78
2021/08/13 11:06:44;;;;;;;1.48;1.38;;;30.60;99.90;;;;;;5032913;28;20189;-78
2021/08/13 11:09:11;;;;;;;1.80;1.65;;;30.30;99.90;;;;;;5033205;28;20192;-79
2021/08/13 11:12:07;;;;;;;2.17;1.55;;;30.00;99.90;;;;;;5033030;28;20236;-79
2021/08/13 11:14:35;;;;;;;2.03;1.60;;;29.70;99.90;;;;;;5033145;28;20204;-79
2021/08/13 11:17:04;;;;;;;1.55;1.38;;;29.50;99.90;;;;;;5033124;28;20195;-79
2021/08/13 11:19:59;;;;;;;1.55;1.45;;;29.30;99.90;;;;;;5033108;28;20287;-78
2021/08/13 11:22:31;;;;;;;1.80;1.52;;;29.20;99.90;;;;;;5032722;28;20297;-79
2021/08/13 11:24:58;;;;;;;3.40;2.10;;;29.40;99.90;;;;;;5033045;28;20194;-79
2021/08/13 11:27:25;;;;;;;1.48;1.38;;;29.50;99.90;;;;;;5033019;28;20197;-78
2021/08/13 11:29:52;;;;;;;1.98;1.75;;;29.40;99.90;;;;;;5033015;28;20193;-78
2021/08/13 11:32:31;;;;;;;2.70;1.70;;;29.30;99.90;;;;;;5034939;28;20707;-78
2021/08/13 11:35:01;;;;;;;1.67;1.33;;;29.20;99.90;;;;;;5037005;28;20546;-78
2021/08/13 11:37:50;;;;;;;1.50;1.40;;;28.90;99.90;;;;;;5036775;28;20201;-79
2021/08/13 11:40:41;;;;;;;3.15;1.70;;;28.80;99.90;;;;;;5036244;28;20235;-79
2021/08/13 11:43:09;;;;;;;1.27;1.17;;;28.80;99.90;;;;;;5033095;28;20741;-80
2021/08/13 11:45:37;;;;;;;2.53;1.63;;;28.80;99.90;;;;;;5036297;28;20202;-80
2021/08/13 11:48:07;;;;;;;2.05;1.90;;;29.10;99.90;;;;;;5036492;28;20202;-80
2021/08/13 11:50:34;;;;;;;2.35;1.88;;;29.20;99.90;;;;;;5036444;28;20195;-78
2021/08/13 11:53:01;;;;;;;1.92;1.73;;;29.40;99.90;;;;;;5036394;28;20321;-79
2021/08/13 11:55:29;;;;;;;2.10;1.90;;;29.50;99.90;;;;;;5036437;28;20207;-78
2021/08/13 11:57:57;;;;;;;2.45;1.80;;;29.60;99.90;;;;;;5036382;28;20192;-79
2021/08/13 12:00:26;;;;;;;3.78;2.28;;;29.70;99.90;;;;;;5036114;28;20554;-80
2021/08/13 12:02:58;;;;;;;1.48;1.33;;;29.70;99.90;;;;;;5035946;28;20737;-81
2021/08/13 12:05:29;;;;;;;2.30;1.73;;;29.60;99.90;;;;;;5036235;28;20199;-78
2021/08/13 12:08:00;;;;;;;4.45;2.15;;;29.60;99.90;;;;;;5036074;28;20245;-78
2021/08/13 12:10:28;;;;;;;2.88;2.28;;;29.50;99.90;;;;;;5035747;28;20195;-78
2021/08/13 12:12:55;;;;;;;2.55;1.40;;;29.50;99.90;;;;;;5035805;28;20223;-80
2021/08/13 12:15:34;;;;;;;2.35;2.17;;;29.50;99.90;;;;;;5036045;28;20191;-79
2021/08/13 12:18:01;;;;;;;4.68;1.85;;;29.50;99.90;;;;;;5036040;28;20249;-78
2021/08/13 12:20:30;;;;;;;1.80;1.67;;;29.70;99.90;;;;;;5035968;28;20188;-80
2021/08/13 12:23:03;;;;;;;2.40;1.98;;;29.70;99.90;;;;;;5035502;28;20231;-78
2021/08/13 12:25:34;;;;;;;1.73;1.63;;;29.70;99.90;;;;;;5035856;28;20196;-79
2021/08/13 12:28:02;;;;;;;1.60;1.50;;;29.70;99.90;;;;;;5035861;28;20195;-80
2021/08/13 12:30:28;;;;;;;1.45;1.27;;;29.80;99.90;;;;;;5035380;28;20192;-81
2021/08/13 12:32:57;;;;;;;2.95;1.58;;;29.80;99.90;;;;;;5035691;28;20231;-80
2021/08/13 12:35:25;;;;;;;2.92;1.77;;;29.80;99.90;;;;;;5035380;28;20643;-80
2021/08/13 12:37:55;;;;;;;3.72;1.92;;;29.80;99.90;;;;;;5035615;28;20202;-80
2021/08/13 12:40:22;;;;;;;2.28;2.08;;;30.10;99.90;;;;;;5035264;28;20293;-79
2021/08/13 12:42:51;;;;;;;3.22;1.95;;;30.10;99.90;;;;;;5034559;28;20707;-79
2021/08/13 12:45:20;;;;;;;2.03;1.67;;;30.10;99.90;;;;;;5035144;28;20670;-79
2021/08/13 12:47:49;;;;;;;2.53;1.92;;;30.10;99.90;;;;;;5035118;28;20188;-79
2021/08/13 12:50:17;;;;;;;4.18;2.42;;;29.90;99.90;;;;;;5035102;28;20648;-79
2021/08/13 12:53:04;;;;;;;4.63;1.75;;;29.80;99.90;;;;;;5035529;28;20305;-79
2021/08/13 12:55:41;;;;;;;2.47;2.30;;;29.60;99.90;;;;;;5035285;28;20195;-79